sensor_id;sensor_type;location;lat;lon;timestamp;P1;durP1;ratioP1;P2;durP2;ratioP2
42586;SDS011;28216;53.362;-6.288;2022-07-29T00:01:00;13.07;;;11.70;;
42586;SDS011;28216;53.362;-6.288;2022-07-29T00:03:26;13.30;;;11.27;;
42586;SDS011;28216;53.362;-6.288;2022-07-29T00:05:51;15.13;;;11.68;;
42586;SDS011;28216;53.362;-6.288;2022-07-29T00:08:18;13.43;;;12.00;;
42586;SDS011;28216;53.362;-6.288;2022-07-29T00:10:43;15.60;;;12.30;;
42586;SDS011;28216;53.362;-6.288;2022-07-29T00:13:09;13.68;;;11.77;;
42586;SDS011;28216;53.362;-6.288;2022-07-29T00:15:35;16.33;;;13.07;;
42586;SDS011;28216;53.362;-6.288;2022-07-29T00:18:00;15.70;;;13.13;;
42586;SDS011;28216;53.362;-6.288;2022-07-29T00:20:26;14.18;;;12.73;;
42586;SDS011;28216;53.362;-6.288;2022-07-29T00:22:51;14.77;;;13.27;;
42586;SDS011;28216;53.362;-6.288;2022-07-29T00:25:18;14.57;;;12.90;;
42586;SDS011;28216;53.362;-6.288;2022-07-29T00:27:44;13.23;;;11.77;;
42586;SDS011;28216;53.362;-6.288;2022-07-29T00:30:11;19.33;;;13.13;;
42586;SDS011;28216;53.362;-6.288;2022-07-29T00:32:36;15.75;;;13.18;;
42586;SDS011;28216;53.362;-6.288;2022-07-29T00:35:02;14.50;;;12.60;;
42586;SDS011;28216;53.362;-6.288;2022-07-29T00:37:47;14.55;;;11.98;;
42586;SDS011;28216;53.362;-6.288;2022-07-29T00:40:13;15.82;;;12.45;;
42586;SDS011;28216;53.362;-6.288;2022-07-29T00:42:42;15.70;;;13.20;;
42586;SDS011;28216;53.362;-6.288;2022-07-29T00:45:12;13.70;;;12.00;;
42586;SDS011;28216;53.362;-6.288;2022-07-29T00:47:38;14.63;;;12.25;;
42586;SDS011;28216;53.362;-6.288;2022-07-29T00:50:04;16.58;;;12.48;;
42586;SDS011;28216;53.362;-6.288;2022-07-29T00:52:31;14.45;;;12.15;;
42586;SDS011;28216;53.362;-6.288;2022-07-29T00:54:58;16.92;;;11.82;;
42586;SDS011;28216;53.362;-6.288;2022-07-29T00:57:24;13.90;;;11.38;;
42586;SDS011;28216;53.362;-6.288;2022-07-29T00:59:49;13.65;;;12.15;;
42586;SDS011;28216;53.362;-6.288;2022-07-29T01:02:15;14.13;;;11.90;;
42586;SDS011;28216;53.362;-6.288;2022-07-29T01:04:40;14.23;;;12.18;;
42586;SDS011;28216;53.362;-6.288;2022-07-29T01:07:06;13.98;;;12.43;;
42586;SDS011;28216;53.362;-6.288;2022-07-29T01:09:32;16.67;;;12.23;;
42586;SDS011;28216;53.362;-6.288;2022-07-29T01:11:59;15.57;;;11.90;;
42586;SDS011;28216;53.362;-6.288;2022-07-29T01:14:25;13.82;;;12.35;;
42586;SDS011;28216;53.362;-6.288;2022-07-29T01:16:54;14.32;;;12.25;;
42586;SDS011;28216;53.362;-6.288;2022-07-29T01:25:25;17.77;;;12.93;;
42586;SDS011;28216;53.362;-6.288;2022-07-29T01:30:26;16.88;;;13.30;;
42586;SDS011;28216;53.362;-6.288;2022-07-29T01:32:56;15.70;;;12.60;;
42586;SDS011;28216;53.362;-6.288;2022-07-29T01:35:26;15.27;;;13.63;;
42586;SDS011;28216;53.362;-6.288;2022-07-29T01:38:05;14.43;;;12.93;;
42586;SDS011;28216;53.362;-6.288;2022-07-29T01:40:39;17.50;;;13.43;;
42586;SDS011;28216;53.362;-6.288;2022-07-29T01:43:12;14.80;;;12.57;;
42586;SDS011;28216;53.362;-6.288;2022-07-29T01:45:44;14.25;;;12.75;;
42586;SDS011;28216;53.362;-6.288;2022-07-29T01:48:27;17.17;;;13.23;;
42586;SDS011;28216;53.362;-6.288;2022-07-29T01:53:54;15.48;;;13.52;;
42586;SDS011;28216;53.362;-6.288;2022-07-29T01:56:26;15.15;;;13.55;;
42586;SDS011;28216;53.362;-6.288;2022-07-29T01:58:57;16.05;;;13.90;;
42586;SDS011;28216;53.362;-6.288;2022-07-29T02:01:24;16.02;;;14.00;;
42586;SDS011;28216;53.362;-6.288;2022-07-29T02:03:51;15.77;;;13.05;;
42586;SDS011;28216;53.362;-6.288;2022-07-29T02:06:21;15.50;;;12.68;;
42586;SDS011;28216;53.362;-6.288;2022-07-29T02:08:48;14.50;;;12.55;;
42586;SDS011;28216;53.362;-6.288;2022-07-29T02:11:17;14.13;;;11.38;;
42586;SDS011;28216;53.362;-6.288;2022-07-29T02:13:42;13.25;;;10.07;;
42586;SDS011;28216;53.362;-6.288;2022-07-29T02:16:10;12.07;;;10.13;;
42586;SDS011;28216;53.362;-6.288;2022-07-29T02:18:37;16.13;;;10.70;;
42586;SDS011;28216;53.362;-6.288;2022-07-29T02:21:05;11.57;;;10.27;;
42586;SDS011;28216;53.362;-6.288;2022-07-29T02:23:33;12.07;;;10.02;;
42586;SDS011;28216;53.362;-6.288;2022-07-29T02:26:00;10.88;;;9.77;;
42586;SDS011;28216;53.362;-6.288;2022-07-29T02:28:28;10.65;;;9.43;;
42586;SDS011;28216;53.362;-6.288;2022-07-29T02:30:57;13.90;;;8.32;;
42586;SDS011;28216;53.362;-6.288;2022-07-29T02:33:24;11.50;;;8.07;;
42586;SDS011;28216;53.362;-6.288;2022-07-29T02:35:50;9.75;;;6.72;;
42586;SDS011;28216;53.362;-6.288;2022-07-29T02:38:17;6.80;;;5.43;;
42586;SDS011;28216;53.362;-6.288;2022-07-29T02:41:03;6.30;;;5.22;;
42586;SDS011;28216;53.362;-6.288;2022-07-29T02:43:33;7.22;;;5.30;;
42586;SDS011;28216;53.362;-6.288;2022-07-29T02:46:00;6.13;;;4.53;;
42586;SDS011;28216;53.362;-6.288;2022-07-29T02:48:41;6.53;;;4.60;;
42586;SDS011;28216;53.362;-6.288;2022-07-29T02:51:17;6.15;;;4.40;;
42586;SDS011;28216;53.362;-6.288;2022-07-29T02:53:51;9.05;;;4.15;;
42586;SDS011;28216;53.362;-6.288;2022-07-29T02:56:19;5.90;;;4.40;;
42586;SDS011;28216;53.362;-6.288;2022-07-29T02:58:53;6.15;;;4.43;;
42586;SDS011;28216;53.362;-6.288;2022-07-29T03:01:22;6.70;;;4.15;;
42586;SDS011;28216;53.362;-6.288;2022-07-29T03:03:49;5.93;;;3.90;;
42586;SDS011;28216;53.362;-6.288;2022-07-29T03:06:18;8.05;;;4.10;;
42586;SDS011;28216;53.362;-6.288;2022-07-29T03:08:45;6.07;;;4.00;;
42586;SDS011;28216;53.362;-6.288;2022-07-29T03:11:12;6.93;;;4.13;;
42586;SDS011;28216;53.362;-6.288;2022-07-29T03:13:39;5.95;;;3.95;;
42586;SDS011;28216;53.362;-6.288;2022-07-29T03:16:05;6.15;;;3.92;;
42586;SDS011;28216;53.362;-6.288;2022-07-29T03:18:31;4.85;;;3.78;;
42586;SDS011;28216;53.362;-6.288;2022-07-29T03:20:57;5.55;;;3.83;;
42586;SDS011;28216;53.362;-6.288;2022-07-29T03:23:23;5.65;;;3.67;;
42586;SDS011;28216;53.362;-6.288;2022-07-29T03:25:50;5.43;;;3.50;;
42586;SDS011;28216;53.362;-6.288;2022-07-29T03:28:16;5.15;;;3.40;;
42586;SDS011;28216;53.362;-6.288;2022-07-29T03:30:41;4.93;;;3.30;;
42586;SDS011;28216;53.362;-6.288;2022-07-29T03:33:07;6.63;;;3.60;;
42586;SDS011;28216;53.362;-6.288;2022-07-29T03:35:33;4.38;;;3.05;;
42586;SDS011;28216;53.362;-6.288;2022-07-29T03:37:58;3.28;;;2.90;;
42586;SDS011;28216;53.362;-6.288;2022-07-29T03:40:37;5.95;;;3.20;;
42586;SDS011;28216;53.362;-6.288;2022-07-29T03:43:05;5.25;;;3.30;;
42586;SDS011;28216;53.362;-6.288;2022-07-29T03:45:34;5.03;;;3.10;;
42586;SDS011;28216;53.362;-6.288;2022-07-29T03:48:01;4.03;;;3.20;;
42586;SDS011;28216;53.362;-6.288;2022-07-29T03:50:30;3.78;;;2.90;;
42586;SDS011;28216;53.362;-6.288;2022-07-29T03:52:58;4.05;;;3.08;;
42586;SDS011;28216;53.362;-6.288;2022-07-29T03:55:24;5.72;;;3.33;;
42586;SDS011;28216;53.362;-6.288;2022-07-29T03:57:51;4.72;;;3.30;;
42586;SDS011;28216;53.362;-6.288;2022-07-29T04:00:17;3.72;;;3.40;;
42586;SDS011;28216;53.362;-6.288;2022-07-29T04:02:44;7.03;;;3.72;;
42586;SDS011;28216;53.362;-6.288;2022-07-29T04:05:13;4.20;;;3.80;;
42586;SDS011;28216;53.362;-6.288;2022-07-29T04:07:39;6.63;;;4.20;;
42586;SDS011;28216;53.362;-6.288;2022-07-29T04:10:05;6.25;;;4.20;;
42586;SDS011;28216;53.362;-6.288;2022-07-29T04:12:32;8.60;;;4.43;;
42586;SDS011;28216;53.362;-6.288;2022-07-29T04:14:57;4.78;;;4.07;;
42586;SDS011;28216;53.362;-6.288;2022-07-29T04:17:23;5.13;;;4.22;;
42586;SDS011;28216;53.362;-6.288;2022-07-29T04:19:48;7.30;;;4.55;;
42586;SDS011;28216;53.362;-6.288;2022-07-29T04:22:13;8.15;;;5.10;;
42586;SDS011;28216;53.362;-6.288;2022-07-29T04:24:39;6.35;;;4.63;;
42586;SDS011;28216;53.362;-6.288;2022-07-29T04:27:04;9.13;;;5.40;;
42586;SDS011;28216;53.362;-6.288;2022-07-29T04:29:30;8.20;;;4.85;;
42586;SDS011;28216;53.362;-6.288;2022-07-29T04:31:55;6.60;;;4.57;;
42586;SDS011;28216;53.362;-6.288;2022-07-29T04:34:21;5.00;;;4.50;;
42586;SDS011;28216;53.362;-6.288;2022-07-29T04:36:46;8.18;;;4.55;;
42586;SDS011;28216;53.362;-6.288;2022-07-29T04:39:12;5.35;;;4.85;;
42586;SDS011;28216;53.362;-6.288;2022-07-29T04:41:37;6.90;;;4.57;;
42586;SDS011;28216;53.362;-6.288;2022-07-29T04:44:03;5.25;;;4.10;;
42586;SDS011;28216;53.362;-6.288;2022-07-29T04:46:30;5.55;;;3.50;;
42586;SDS011;28216;53.362;-6.288;2022-07-29T04:48:56;7.22;;;3.70;;
42586;SDS011;28216;53.362;-6.288;2022-07-29T04:51:22;4.68;;;4.10;;
42586;SDS011;28216;53.362;-6.288;2022-07-29T04:53:47;5.05;;;4.57;;
42586;SDS011;28216;53.362;-6.288;2022-07-29T04:56:12;5.53;;;4.82;;
42586;SDS011;28216;53.362;-6.288;2022-07-29T04:58:38;4.93;;;4.53;;
42586;SDS011;28216;53.362;-6.288;2022-07-29T05:01:03;5.22;;;4.50;;
42586;SDS011;28216;53.362;-6.288;2022-07-29T05:03:29;5.80;;;4.65;;
42586;SDS011;28216;53.362;-6.288;2022-07-29T05:05:55;4.82;;;4.30;;
42586;SDS011;28216;53.362;-6.288;2022-07-29T05:08:20;4.80;;;4.35;;
42586;SDS011;28216;53.362;-6.288;2022-07-29T05:10:46;8.57;;;4.50;;
42586;SDS011;28216;53.362;-6.288;2022-07-29T05:13:11;5.20;;;4.55;;
42586;SDS011;28216;53.362;-6.288;2022-07-29T05:15:37;10.00;;;4.72;;
42586;SDS011;28216;53.362;-6.288;2022-07-29T05:18:03;6.38;;;3.97;;
42586;SDS011;28216;53.362;-6.288;2022-07-29T05:20:29;6.18;;;4.80;;
42586;SDS011;28216;53.362;-6.288;2022-07-29T05:22:56;4.45;;;4.05;;
42586;SDS011;28216;53.362;-6.288;2022-07-29T05:25:25;5.85;;;4.32;;
42586;SDS011;28216;53.362;-6.288;2022-07-29T05:27:51;5.97;;;3.90;;
42586;SDS011;28216;53.362;-6.288;2022-07-29T05:30:17;4.43;;;4.03;;
42586;SDS011;28216;53.362;-6.288;2022-07-29T05:32:43;6.10;;;4.10;;
42586;SDS011;28216;53.362;-6.288;2022-07-29T05:35:08;4.65;;;4.15;;
42586;SDS011;28216;53.362;-6.288;2022-07-29T05:37:34;5.78;;;4.13;;
42586;SDS011;28216;53.362;-6.288;2022-07-29T05:39:59;6.07;;;3.67;;
42586;SDS011;28216;53.362;-6.288;2022-07-29T05:42:25;7.18;;;3.67;;
42586;SDS011;28216;53.362;-6.288;2022-07-29T05:44:51;4.72;;;3.50;;
42586;SDS011;28216;53.362;-6.288;2022-07-29T05:47:17;4.45;;;4.00;;
42586;SDS011;28216;53.362;-6.288;2022-07-29T05:49:43;6.10;;;4.10;;
42586;SDS011;28216;53.362;-6.288;2022-07-29T05:52:08;6.80;;;3.80;;
42586;SDS011;28216;53.362;-6.288;2022-07-29T05:54:34;3.72;;;3.30;;
42586;SDS011;28216;53.362;-6.288;2022-07-29T05:57:00;5.68;;;3.58;;
42586;SDS011;28216;53.362;-6.288;2022-07-29T05:59:25;5.30;;;3.30;;
42586;SDS011;28216;53.362;-6.288;2022-07-29T06:01:51;4.47;;;3.85;;
42586;SDS011;28216;53.362;-6.288;2022-07-29T06:04:17;3.85;;;3.45;;
42586;SDS011;28216;53.362;-6.288;2022-07-29T06:06:42;4.53;;;3.83;;
42586;SDS011;28216;53.362;-6.288;2022-07-29T06:09:07;4.15;;;3.35;;
42586;SDS011;28216;53.362;-6.288;2022-07-29T06:11:33;5.20;;;3.63;;
42586;SDS011;28216;53.362;-6.288;2022-07-29T06:13:58;4.45;;;3.60;;
42586;SDS011;28216;53.362;-6.288;2022-07-29T06:16:24;5.05;;;3.65;;
42586;SDS011;28216;53.362;-6.288;2022-07-29T06:18:49;4.75;;;4.15;;
42586;SDS011;28216;53.362;-6.288;2022-07-29T06:21:15;3.28;;;2.97;;
42586;SDS011;28216;53.362;-6.288;2022-07-29T06:23:40;4.13;;;3.17;;
42586;SDS011;28216;53.362;-6.288;2022-07-29T06:26:05;5.38;;;3.53;;
42586;SDS011;28216;53.362;-6.288;2022-07-29T06:28:32;4.25;;;3.45;;
42586;SDS011;28216;53.362;-6.288;2022-07-29T06:30:57;3.53;;;2.90;;
42586;SDS011;28216;53.362;-6.288;2022-07-29T06:33:24;3.60;;;2.80;;
42586;SDS011;28216;53.362;-6.288;2022-07-29T06:35:49;4.22;;;2.83;;
42586;SDS011;28216;53.362;-6.288;2022-07-29T06:38:15;3.67;;;2.90;;
42586;SDS011;28216;53.362;-6.288;2022-07-29T06:40:41;5.78;;;3.40;;
42586;SDS011;28216;53.362;-6.288;2022-07-29T06:43:26;3.93;;;3.63;;
42586;SDS011;28216;53.362;-6.288;2022-07-29T06:45:56;3.38;;;3.05;;
42586;SDS011;28216;53.362;-6.288;2022-07-29T06:48:22;4.68;;;3.40;;
42586;SDS011;28216;53.362;-6.288;2022-07-29T06:50:47;6.60;;;3.63;;
42586;SDS011;28216;53.362;-6.288;2022-07-29T06:53:13;4.50;;;3.95;;
42586;SDS011;28216;53.362;-6.288;2022-07-29T06:55:38;4.68;;;3.40;;
42586;SDS011;28216;53.362;-6.288;2022-07-29T06:58:04;5.25;;;3.90;;
42586;SDS011;28216;53.362;-6.288;2022-07-29T07:00:29;4.05;;;3.53;;
42586;SDS011;28216;53.362;-6.288;2022-07-29T07:02:55;4.05;;;3.65;;
42586;SDS011;28216;53.362;-6.288;2022-07-29T07:05:20;4.85;;;3.90;;
42586;SDS011;28216;53.362;-6.288;2022-07-29T07:07:46;4.65;;;4.03;;
42586;SDS011;28216;53.362;-6.288;2022-07-29T07:10:11;4.28;;;3.88;;
42586;SDS011;28216;53.362;-6.288;2022-07-29T07:12:37;6.07;;;3.88;;
42586;SDS011;28216;53.362;-6.288;2022-07-29T07:15:02;6.18;;;4.20;;
42586;SDS011;28216;53.362;-6.288;2022-07-29T07:17:28;7.70;;;4.45;;
42586;SDS011;28216;53.362;-6.288;2022-07-29T07:19:53;5.05;;;4.30;;
42586;SDS011;28216;53.362;-6.288;2022-07-29T07:22:19;5.30;;;3.80;;
42586;SDS011;28216;53.362;-6.288;2022-07-29T07:24:44;7.05;;;4.00;;
42586;SDS011;28216;53.362;-6.288;2022-07-29T07:27:10;7.32;;;4.00;;
42586;SDS011;28216;53.362;-6.288;2022-07-29T07:29:35;11.35;;;4.55;;
42586;SDS011;28216;53.362;-6.288;2022-07-29T07:32:01;6.45;;;4.00;;
42586;SDS011;28216;53.362;-6.288;2022-07-29T07:34:27;7.43;;;3.75;;
42586;SDS011;28216;53.362;-6.288;2022-07-29T07:36:57;7.55;;;3.80;;
42586;SDS011;28216;53.362;-6.288;2022-07-29T07:39:22;8.18;;;3.92;;
42586;SDS011;28216;53.362;-6.288;2022-07-29T07:41:49;5.15;;;3.63;;
42586;SDS011;28216;53.362;-6.288;2022-07-29T07:44:18;7.45;;;3.33;;
42586;SDS011;28216;53.362;-6.288;2022-07-29T07:46:43;5.47;;;3.40;;
42586;SDS011;28216;53.362;-6.288;2022-07-29T07:49:10;5.80;;;3.08;;
42586;SDS011;28216;53.362;-6.288;2022-07-29T07:51:36;4.38;;;2.95;;
42586;SDS011;28216;53.362;-6.288;2022-07-29T07:54:01;3.22;;;2.83;;
42586;SDS011;28216;53.362;-6.288;2022-07-29T07:56:27;6.57;;;2.65;;
42586;SDS011;28216;53.362;-6.288;2022-07-29T07:58:53;4.13;;;2.80;;
42586;SDS011;28216;53.362;-6.288;2022-07-29T08:01:19;3.95;;;2.40;;
42586;SDS011;28216;53.362;-6.288;2022-07-29T08:03:47;4.15;;;2.45;;
42586;SDS011;28216;53.362;-6.288;2022-07-29T08:06:14;4.07;;;2.20;;
42586;SDS011;28216;53.362;-6.288;2022-07-29T08:08:39;3.58;;;2.30;;
42586;SDS011;28216;53.362;-6.288;2022-07-29T08:11:05;4.13;;;2.63;;
42586;SDS011;28216;53.362;-6.288;2022-07-29T08:13:31;3.88;;;2.60;;
42586;SDS011;28216;53.362;-6.288;2022-07-29T08:15:57;5.22;;;2.50;;
42586;SDS011;28216;53.362;-6.288;2022-07-29T08:18:25;6.68;;;2.67;;
42586;SDS011;28216;53.362;-6.288;2022-07-29T08:20:53;3.03;;;2.45;;
42586;SDS011;28216;53.362;-6.288;2022-07-29T08:23:20;4.00;;;2.42;;
42586;SDS011;28216;53.362;-6.288;2022-07-29T08:25:45;3.67;;;2.75;;
42586;SDS011;28216;53.362;-6.288;2022-07-29T08:28:11;7.68;;;3.13;;
42586;SDS011;28216;53.362;-6.288;2022-07-29T08:30:39;4.03;;;2.70;;
42586;SDS011;28216;53.362;-6.288;2022-07-29T08:33:04;4.00;;;2.40;;
42586;SDS011;28216;53.362;-6.288;2022-07-29T08:35:30;6.38;;;2.88;;
42586;SDS011;28216;53.362;-6.288;2022-07-29T08:37:55;3.13;;;2.30;;
42586;SDS011;28216;53.362;-6.288;2022-07-29T08:40:21;9.50;;;2.85;;
42586;SDS011;28216;53.362;-6.288;2022-07-29T08:42:49;4.10;;;2.47;;
42586;SDS011;28216;53.362;-6.288;2022-07-29T08:45:14;5.30;;;3.20;;
42586;SDS011;28216;53.362;-6.288;2022-07-29T08:47:40;4.10;;;2.92;;
42586;SDS011;28216;53.362;-6.288;2022-07-29T08:50:07;3.58;;;2.40;;
42586;SDS011;28216;53.362;-6.288;2022-07-29T08:52:35;3.78;;;2.25;;
42586;SDS011;28216;53.362;-6.288;2022-07-29T08:55:02;5.85;;;2.50;;
42586;SDS011;28216;53.362;-6.288;2022-07-29T08:57:29;5.65;;;2.75;;
42586;SDS011;28216;53.362;-6.288;2022-07-29T08:59:55;4.45;;;2.50;;
42586;SDS011;28216;53.362;-6.288;2022-07-29T09:02:27;7.38;;;2.92;;
42586;SDS011;28216;53.362;-6.288;2022-07-29T09:04:54;3.83;;;2.13;;
42586;SDS011;28216;53.362;-6.288;2022-07-29T09:07:23;4.38;;;2.20;;
42586;SDS011;28216;53.362;-6.288;2022-07-29T09:09:49;6.43;;;2.78;;
42586;SDS011;28216;53.362;-6.288;2022-07-29T09:12:14;5.22;;;2.85;;
42586;SDS011;28216;53.362;-6.288;2022-07-29T09:14:41;5.43;;;2.70;;
42586;SDS011;28216;53.362;-6.288;2022-07-29T09:17:07;9.38;;;2.88;;
42586;SDS011;28216;53.362;-6.288;2022-07-29T09:19:34;6.25;;;2.58;;
42586;SDS011;28216;53.362;-6.288;2022-07-29T09:22:01;4.68;;;2.33;;
42586;SDS011;28216;53.362;-6.288;2022-07-29T09:24:37;5.30;;;2.40;;
42586;SDS011;28216;53.362;-6.288;2022-07-29T09:27:08;3.28;;;2.30;;
42586;SDS011;28216;53.362;-6.288;2022-07-29T09:29:54;4.25;;;2.75;;
42586;SDS011;28216;53.362;-6.288;2022-07-29T09:32:24;3.20;;;2.60;;
42586;SDS011;28216;53.362;-6.288;2022-07-29T09:34:51;4.47;;;2.30;;
42586;SDS011;28216;53.362;-6.288;2022-07-29T09:37:36;4.28;;;2.30;;
42586;SDS011;28216;53.362;-6.288;2022-07-29T09:40:09;3.90;;;2.15;;
42586;SDS011;28216;53.362;-6.288;2022-07-29T09:42:37;3.70;;;2.10;;
42586;SDS011;28216;53.362;-6.288;2022-07-29T09:45:02;2.30;;;1.88;;
42586;SDS011;28216;53.362;-6.288;2022-07-29T09:47:40;3.28;;;1.90;;
42586;SDS011;28216;53.362;-6.288;2022-07-29T09:50:10;3.50;;;2.42;;
42586;SDS011;28216;53.362;-6.288;2022-07-29T09:52:44;4.80;;;2.20;;
42586;SDS011;28216;53.362;-6.288;2022-07-29T09:55:14;3.95;;;1.95;;
42586;SDS011;28216;53.362;-6.288;2022-07-29T09:57:41;3.58;;;1.90;;
42586;SDS011;28216;53.362;-6.288;2022-07-29T10:02:36;3.13;;;2.13;;
42586;SDS011;28216;53.362;-6.288;2022-07-29T10:05:04;3.70;;;2.17;;
42586;SDS011;28216;53.362;-6.288;2022-07-29T10:10:18;4.32;;;2.10;;
42586;SDS011;28216;53.362;-6.288;2022-07-29T10:12:54;3.60;;;1.90;;
42586;SDS011;28216;53.362;-6.288;2022-07-29T10:15:24;5.20;;;2.10;;
42586;SDS011;28216;53.362;-6.288;2022-07-29T10:17:52;4.70;;;2.70;;
42586;SDS011;28216;53.362;-6.288;2022-07-29T10:20:20;6.22;;;2.50;;
42586;SDS011;28216;53.362;-6.288;2022-07-29T10:22:47;3.90;;;2.50;;
42586;SDS011;28216;53.362;-6.288;2022-07-29T10:25:14;5.72;;;2.40;;
42586;SDS011;28216;53.362;-6.288;2022-07-29T10:27:41;6.47;;;2.42;;
42586;SDS011;28216;53.362;-6.288;2022-07-29T10:30:07;7.97;;;2.55;;
42586;SDS011;28216;53.362;-6.288;2022-07-29T10:32:46;5.57;;;2.65;;
42586;SDS011;28216;53.362;-6.288;2022-07-29T10:35:30;6.32;;;2.70;;
42586;SDS011;28216;53.362;-6.288;2022-07-29T10:39:05;3.57;;;2.47;;
42586;SDS011;28216;53.362;-6.288;2022-07-29T10:46:38;4.60;;;2.63;;
42586;SDS011;28216;53.362;-6.288;2022-07-29T10:49:15;3.60;;;2.47;;
42586;SDS011;28216;53.362;-6.288;2022-07-29T10:51:56;3.58;;;2.50;;
42586;SDS011;28216;53.362;-6.288;2022-07-29T11:05:08;3.80;;;2.70;;
42586;SDS011;28216;53.362;-6.288;2022-07-29T11:10:37;4.40;;;2.90;;
42586;SDS011;28216;53.362;-6.288;2022-07-29T11:13:03;5.72;;;2.67;;
42586;SDS011;28216;53.362;-6.288;2022-07-29T11:15:28;7.43;;;2.67;;
42586;SDS011;28216;53.362;-6.288;2022-07-29T11:28:39;5.53;;;2.97;;
42586;SDS011;28216;53.362;-6.288;2022-07-29T11:39:37;5.40;;;2.78;;
42586;SDS011;28216;53.362;-6.288;2022-07-29T11:48:51;6.72;;;3.00;;
42586;SDS011;28216;53.362;-6.288;2022-07-29T11:51:17;5.50;;;2.80;;
42586;SDS011;28216;53.362;-6.288;2022-07-29T11:53:46;3.00;;;2.65;;
42586;SDS011;28216;53.362;-6.288;2022-07-29T11:56:13;5.50;;;2.40;;
42586;SDS011;28216;53.362;-6.288;2022-07-29T12:01:31;8.20;;;2.53;;
42586;SDS011;28216;53.362;-6.288;2022-07-29T12:04:06;5.45;;;2.80;;
42586;SDS011;28216;53.362;-6.288;2022-07-29T12:06:36;4.68;;;2.55;;
42586;SDS011;28216;53.362;-6.288;2022-07-29T12:09:08;5.22;;;2.65;;
42586;SDS011;28216;53.362;-6.288;2022-07-29T12:11:34;4.82;;;2.47;;
42586;SDS011;28216;53.362;-6.288;2022-07-29T12:14:00;6.13;;;2.95;;
42586;SDS011;28216;53.362;-6.288;2022-07-29T12:16:36;7.03;;;2.42;;
42586;SDS011;28216;53.362;-6.288;2022-07-29T12:19:02;5.68;;;2.50;;
42586;SDS011;28216;53.362;-6.288;2022-07-29T12:21:29;4.07;;;2.50;;
42586;SDS011;28216;53.362;-6.288;2022-07-29T12:24:14;4.60;;;2.70;;
42586;SDS011;28216;53.362;-6.288;2022-07-29T12:26:57;7.18;;;2.40;;
42586;SDS011;28216;53.362;-6.288;2022-07-29T12:29:24;5.22;;;2.10;;
42586;SDS011;28216;53.362;-6.288;2022-07-29T12:31:52;5.18;;;2.13;;
42586;SDS011;28216;53.362;-6.288;2022-07-29T12:34:23;8.55;;;2.70;;
42586;SDS011;28216;53.362;-6.288;2022-07-29T12:36:51;11.20;;;2.80;;
42586;SDS011;28216;53.362;-6.288;2022-07-29T12:39:20;4.25;;;2.50;;
42586;SDS011;28216;53.362;-6.288;2022-07-29T12:41:46;4.30;;;2.40;;
42586;SDS011;28216;53.362;-6.288;2022-07-29T12:44:11;9.40;;;3.65;;
42586;SDS011;28216;53.362;-6.288;2022-07-29T12:46:37;7.57;;;3.90;;
42586;SDS011;28216;53.362;-6.288;2022-07-29T12:49:02;8.80;;;4.15;;
42586;SDS011;28216;53.362;-6.288;2022-07-29T12:51:29;8.10;;;3.42;;
42586;SDS011;28216;53.362;-6.288;2022-07-29T12:54:04;7.07;;;3.25;;
42586;SDS011;28216;53.362;-6.288;2022-07-29T12:56:38;9.43;;;2.72;;
42586;SDS011;28216;53.362;-6.288;2022-07-29T12:59:11;6.15;;;2.58;;
42586;SDS011;28216;53.362;-6.288;2022-07-29T13:01:38;3.78;;;1.88;;
42586;SDS011;28216;53.362;-6.288;2022-07-29T13:04:04;3.92;;;1.60;;
42586;SDS011;28216;53.362;-6.288;2022-07-29T13:06:30;2.88;;;1.23;;
42586;SDS011;28216;53.362;-6.288;2022-07-29T13:11:45;2.95;;;1.20;;
42586;SDS011;28216;53.362;-6.288;2022-07-29T13:14:13;1.27;;;1.17;;
42586;SDS011;28216;53.362;-6.288;2022-07-29T13:17:03;1.27;;;1.00;;
42586;SDS011;28216;53.362;-6.288;2022-07-29T13:19:38;1.77;;;1.33;;
42586;SDS011;28216;53.362;-6.288;2022-07-29T13:22:05;3.38;;;1.20;;
42586;SDS011;28216;53.362;-6.288;2022-07-29T13:24:32;2.15;;;1.23;;
42586;SDS011;28216;53.362;-6.288;2022-07-29T13:26:59;2.45;;;1.95;;
42586;SDS011;28216;53.362;-6.288;2022-07-29T13:29:25;5.07;;;2.03;;
42586;SDS011;28216;53.362;-6.288;2022-07-29T13:31:51;1.85;;;1.05;;
42586;SDS011;28216;53.362;-6.288;2022-07-29T13:34:17;1.20;;;1.10;;
42586;SDS011;28216;53.362;-6.288;2022-07-29T13:36:46;1.20;;;1.00;;
42586;SDS011;28216;53.362;-6.288;2022-07-29T13:39:11;4.75;;;1.17;;
42586;SDS011;28216;53.362;-6.288;2022-07-29T13:41:40;1.80;;;1.00;;
42586;SDS011;28216;53.362;-6.288;2022-07-29T13:47:27;2.03;;;1.50;;
42586;SDS011;28216;53.362;-6.288;2022-07-29T13:49:53;3.60;;;1.55;;
42586;SDS011;28216;53.362;-6.288;2022-07-29T13:52:20;1.70;;;1.30;;
42586;SDS011;28216;53.362;-6.288;2022-07-29T13:54:45;1.13;;;0.98;;
42586;SDS011;28216;53.362;-6.288;2022-07-29T13:57:11;2.75;;;1.45;;
42586;SDS011;28216;53.362;-6.288;2022-07-29T13:59:38;4.85;;;1.48;;
42586;SDS011;28216;53.362;-6.288;2022-07-29T14:02:04;2.92;;;1.35;;
42586;SDS011;28216;53.362;-6.288;2022-07-29T14:04:30;2.10;;;1.45;;
42586;SDS011;28216;53.362;-6.288;2022-07-29T14:06:56;4.57;;;1.33;;
42586;SDS011;28216;53.362;-6.288;2022-07-29T14:09:21;3.42;;;1.27;;
42586;SDS011;28216;53.362;-6.288;2022-07-29T14:11:47;3.75;;;1.30;;
42586;SDS011;28216;53.362;-6.288;2022-07-29T14:14:15;1.67;;;1.20;;
42586;SDS011;28216;53.362;-6.288;2022-07-29T14:16:40;1.63;;;1.40;;
42586;SDS011;28216;53.362;-6.288;2022-07-29T14:19:06;2.78;;;1.30;;
42586;SDS011;28216;53.362;-6.288;2022-07-29T14:21:32;1.23;;;1.13;;
42586;SDS011;28216;53.362;-6.288;2022-07-29T14:23:58;2.92;;;1.20;;
42586;SDS011;28216;53.362;-6.288;2022-07-29T14:26:23;1.25;;;1.10;;
42586;SDS011;28216;53.362;-6.288;2022-07-29T14:28:49;1.35;;;1.20;;
42586;SDS011;28216;53.362;-6.288;2022-07-29T14:31:15;2.75;;;1.30;;
42586;SDS011;28216;53.362;-6.288;2022-07-29T14:33:41;3.85;;;1.17;;
42586;SDS011;28216;53.362;-6.288;2022-07-29T14:36:07;1.27;;;1.10;;
42586;SDS011;28216;53.362;-6.288;2022-07-29T14:38:34;2.88;;;1.15;;
42586;SDS011;28216;53.362;-6.288;2022-07-29T14:41:00;2.55;;;1.20;;
42586;SDS011;28216;53.362;-6.288;2022-07-29T14:43:25;4.03;;;1.20;;
42586;SDS011;28216;53.362;-6.288;2022-07-29T14:45:51;2.97;;;1.00;;
42586;SDS011;28216;53.362;-6.288;2022-07-29T14:48:17;1.67;;;1.10;;
42586;SDS011;28216;53.362;-6.288;2022-07-29T14:50:42;1.90;;;1.20;;
42586;SDS011;28216;53.362;-6.288;2022-07-29T14:53:08;1.73;;;1.23;;
42586;SDS011;28216;53.362;-6.288;2022-07-29T14:55:33;1.95;;;1.20;;
42586;SDS011;28216;53.362;-6.288;2022-07-29T14:58:01;1.02;;;1.02;;
42586;SDS011;28216;53.362;-6.288;2022-07-29T15:00:27;2.05;;;1.25;;
42586;SDS011;28216;53.362;-6.288;2022-07-29T15:02:57;1.52;;;1.20;;
42586;SDS011;28216;53.362;-6.288;2022-07-29T15:05:23;2.35;;;1.30;;
42586;SDS011;28216;53.362;-6.288;2022-07-29T15:07:48;2.78;;;1.10;;
42586;SDS011;28216;53.362;-6.288;2022-07-29T15:10:14;1.40;;;1.30;;
42586;SDS011;28216;53.362;-6.288;2022-07-29T15:12:39;1.25;;;1.15;;
42586;SDS011;28216;53.362;-6.288;2022-07-29T15:15:05;3.05;;;1.17;;
42586;SDS011;28216;53.362;-6.288;2022-07-29T15:17:34;1.35;;;1.05;;
42586;SDS011;28216;53.362;-6.288;2022-07-29T15:19:59;1.02;;;1.00;;
42586;SDS011;28216;53.362;-6.288;2022-07-29T15:22:25;2.30;;;1.13;;
42586;SDS011;28216;53.362;-6.288;2022-07-29T15:24:50;3.50;;;1.30;;
42586;SDS011;28216;53.362;-6.288;2022-07-29T15:27:19;1.08;;;1.05;;
42586;SDS011;28216;53.362;-6.288;2022-07-29T15:29:44;3.38;;;1.17;;
42586;SDS011;28216;53.362;-6.288;2022-07-29T15:32:10;1.73;;;1.20;;
42586;SDS011;28216;53.362;-6.288;2022-07-29T15:34:36;1.40;;;1.23;;
42586;SDS011;28216;53.362;-6.288;2022-07-29T15:37:03;3.80;;;1.20;;
42586;SDS011;28216;53.362;-6.288;2022-07-29T15:39:29;2.22;;;1.40;;
42586;SDS011;28216;53.362;-6.288;2022-07-29T15:41:55;0.95;;;0.88;;
42586;SDS011;28216;53.362;-6.288;2022-07-29T15:44:21;1.60;;;1.00;;